sensor_id;sensor_type;location;lat;lon;timestamp;pressure;altitude;pressure_sealevel;temperature
49785;BMP280;35679;38.732;-121.358;2023-04-03T00:02:16;101176.31;;;17.87
49785;BMP280;35679;38.732;-121.358;2023-04-03T00:05:06;101168.31;;;17.87
49785;BMP280;35679;38.732;-121.358;2023-04-03T00:07:55;101172.00;;;17.86
49785;BMP280;35679;38.732;-121.358;2023-04-03T00:10:45;101165.00;;;17.85
49785;BMP280;35679;38.732;-121.358;2023-04-03T00:13:34;101172.00;;;17.86
49785;BMP280;35679;38.732;-121.358;2023-04-03T00:16:24;101162.13;;;17.87
49785;BMP280;35679;38.732;-121.358;2023-04-03T00:19:13;101160.50;;;17.86
49785;BMP280;35679;38.732;-121.358;2023-04-03T00:22:03;101161.31;;;17.86
49785;BMP280;35679;38.732;-121.358;2023-04-03T00:24:52;101161.31;;;17.86
49785;BMP280;35679;38.732;-121.358;2023-04-03T00:27:42;101148.78;;;17.87
49785;BMP280;35679;38.732;-121.358;2023-04-03T00:30:31;101149.00;;;17.85
49785;BMP280;35679;38.732;-121.358;2023-04-03T00:33:21;101162.34;;;17.85
49785;BMP280;35679;38.732;-121.358;2023-04-03T00:36:12;101147.75;;;17.88
49785;BMP280;35679;38.732;-121.358;2023-04-03T00:39:01;101146.13;;;17.87
49785;BMP280;35679;38.732;-121.358;2023-04-03T00:41:50;101140.78;;;17.87
49785;BMP280;35679;38.732;-121.358;2023-04-03T00:47:49;101137.50;;;17.85
49785;BMP280;35679;38.732;-121.358;2023-04-03T00:50:41;101140.38;;;17.83
49785;BMP280;35679;38.732;-121.358;2023-04-03T00:53:39;101127.63;;;17.79
49785;BMP280;35679;38.732;-121.358;2023-04-03T00:56:30;101124.16;;;17.78
49785;BMP280;35679;38.732;-121.358;2023-04-03T00:59:31;101126.41;;;17.75
49785;BMP280;35679;38.732;-121.358;2023-04-03T01:02:21;101131.91;;;17.73
49785;BMP280;35679;38.732;-121.358;2023-04-03T01:05:11;101126.59;;;17.73
49785;BMP280;35679;38.732;-121.358;2023-04-03T01:08:03;101120.66;;;17.72
49785;BMP280;35679;38.732;-121.358;2023-04-03T01:10:53;101124.13;;;17.72
49785;BMP280;35679;38.732;-121.358;2023-04-03T01:13:44;101116.34;;;17.71
49785;BMP280;35679;38.732;-121.358;2023-04-03T01:16:34;101120.84;;;17.70
49785;BMP280;35679;38.732;-121.358;2023-04-03T01:19:23;101121.88;;;17.69
49785;BMP280;35679;38.732;-121.358;2023-04-03T01:22:27;101112.84;;;17.70
49785;BMP280;35679;38.732;-121.358;2023-04-03T01:25:17;101114.09;;;17.68
49785;BMP280;35679;38.732;-121.358;2023-04-03T01:28:10;101113.44;;;17.66
49785;BMP280;35679;38.732;-121.358;2023-04-03T01:34:06;101109.56;;;17.62
49785;BMP280;35679;38.732;-121.358;2023-04-03T01:36:56;101110.56;;;17.61
49785;BMP280;35679;38.732;-121.358;2023-04-03T01:39:45;101109.13;;;17.58
49785;BMP280;35679;38.732;-121.358;2023-04-03T01:42:34;101108.72;;;17.55
49785;BMP280;35679;38.732;-121.358;2023-04-03T01:45:25;101116.91;;;17.53
49785;BMP280;35679;38.732;-121.358;2023-04-03T01:48:15;101114.47;;;17.52
49785;BMP280;35679;38.732;-121.358;2023-04-03T01:51:05;101107.25;;;17.52
49785;BMP280;35679;38.732;-121.358;2023-04-03T01:53:54;101103.78;;;17.52
49785;BMP280;35679;38.732;-121.358;2023-04-03T01:56:43;101103.97;;;17.50
49785;BMP280;35679;38.732;-121.358;2023-04-03T01:59:33;101098.84;;;17.49
49785;BMP280;35679;38.732;-121.358;2023-04-03T02:02:23;101103.38;;;17.48
49785;BMP280;35679;38.732;-121.358;2023-04-03T02:05:12;101100.28;;;17.45
49785;BMP280;35679;38.732;-121.358;2023-04-03T02:08:02;101096.78;;;17.44
49785;BMP280;35679;38.732;-121.358;2023-04-03T02:10:51;101102.31;;;17.43
49785;BMP280;35679;38.732;-121.358;2023-04-03T02:13:41;101090.81;;;17.42
49785;BMP280;35679;38.732;-121.358;2023-04-03T02:16:30;101083.41;;;17.38
49785;BMP280;35679;38.732;-121.358;2023-04-03T02:19:20;101087.53;;;17.40
49785;BMP280;35679;38.732;-121.358;2023-04-03T02:22:09;101085.28;;;17.37
49785;BMP280;35679;38.732;-121.358;2023-04-03T02:24:58;101086.28;;;17.36
49785;BMP280;35679;38.732;-121.358;2023-04-03T02:27:48;101082.63;;;17.37
49785;BMP280;35679;38.732;-121.358;2023-04-03T02:30:37;101089.81;;;17.37
49785;BMP280;35679;38.732;-121.358;2023-04-03T02:33:27;101084.66;;;17.35
49785;BMP280;35679;38.732;-121.358;2023-04-03T02:36:17;101087.31;;;17.35
49785;BMP280;35679;38.732;-121.358;2023-04-03T02:39:12;101086.50;;;17.35
49785;BMP280;35679;38.732;-121.358;2023-04-03T02:42:02;101083.22;;;17.33
49785;BMP280;35679;38.732;-121.358;2023-04-03T02:44:52;101085.06;;;17.32
49785;BMP280;35679;38.732;-121.358;2023-04-03T02:47:44;101083.63;;;17.30
49785;BMP280;35679;38.732;-121.358;2023-04-03T02:50:34;101088.13;;;17.29
49785;BMP280;35679;38.732;-121.358;2023-04-03T02:53:24;101078.50;;;17.28
49785;BMP280;35679;38.732;-121.358;2023-04-03T02:56:13;101088.53;;;17.26
49785;BMP280;35679;38.732;-121.358;2023-04-03T02:59:03;101085.06;;;17.26
49785;BMP280;35679;38.732;-121.358;2023-04-03T03:01:56;101087.72;;;17.26
49785;BMP280;35679;38.732;-121.358;2023-04-03T03:04:45;101097.53;;;17.25
49785;BMP280;35679;38.732;-121.358;2023-04-03T03:07:34;101098.75;;;17.23
49785;BMP280;35679;38.732;-121.358;2023-04-03T03:10:24;101106.53;;;17.24
49785;BMP280;35679;38.732;-121.358;2023-04-03T03:13:14;101127.88;;;17.24
49785;BMP280;35679;38.732;-121.358;2023-04-03T03:16:03;101131.59;;;17.23
49785;BMP280;35679;38.732;-121.358;2023-04-03T03:18:53;101130.31;;;17.19
49785;BMP280;35679;38.732;-121.358;2023-04-03T03:21:44;101123.34;;;17.18
49785;BMP280;35679;38.732;-121.358;2023-04-03T03:24:34;101122.72;;;17.16
49785;BMP280;35679;38.732;-121.358;2023-04-03T03:27:23;101125.38;;;17.16
49785;BMP280;35679;38.732;-121.358;2023-04-03T03:30:13;101126.59;;;17.14
49785;BMP280;35679;38.732;-121.358;2023-04-03T03:33:03;101118.41;;;17.15
49785;BMP280;35679;38.732;-121.358;2023-04-03T03:35:53;101124.97;;;17.13
49785;BMP280;35679;38.732;-121.358;2023-04-03T03:38:43;101136.03;;;17.10
49785;BMP280;35679;38.732;-121.358;2023-04-03T03:41:32;101152.22;;;17.08
49785;BMP280;35679;38.732;-121.358;2023-04-03T03:44:23;101154.47;;;17.05
49785;BMP280;35679;38.732;-121.358;2023-04-03T03:47:13;101165.31;;;17.04
49785;BMP280;35679;38.732;-121.358;2023-04-03T03:50:03;101166.34;;;17.03
49785;BMP280;35679;38.732;-121.358;2023-04-03T03:52:52;101173.50;;;17.02
49785;BMP280;35679;38.732;-121.358;2023-04-03T03:55:42;101161.41;;;17.00
49785;BMP280;35679;38.732;-121.358;2023-04-03T03:58:32;101166.13;;;16.98
49785;BMP280;35679;38.732;-121.358;2023-04-03T04:01:23;101162.81;;;16.96
49785;BMP280;35679;38.732;-121.358;2023-04-03T04:04:13;101174.69;;;16.93
49785;BMP280;35679;38.732;-121.358;2023-04-03T04:07:03;101178.19;;;16.94
49785;BMP280;35679;38.732;-121.358;2023-04-03T04:09:54;101184.56;;;16.93
49785;BMP280;35679;38.732;-121.358;2023-04-03T04:12:44;101190.91;;;16.92
49785;BMP280;35679;38.732;-121.358;2023-04-03T04:15:33;101203.59;;;16.90
49785;BMP280;35679;38.732;-121.358;2023-04-03T04:18:23;101205.66;;;16.88
49785;BMP280;35679;38.732;-121.358;2023-04-03T04:21:13;101205.66;;;16.88
49785;BMP280;35679;38.732;-121.358;2023-04-03T04:24:04;101208.47;;;16.86
49785;BMP280;35679;38.732;-121.358;2023-04-03T04:26:55;101206.03;;;16.85
49785;BMP280;35679;38.732;-121.358;2023-04-03T04:29:45;101200.03;;;16.83
49785;BMP280;35679;38.732;-121.358;2023-04-03T04:32:34;101201.09;;;16.82
49785;BMP280;35679;38.732;-121.358;2023-04-03T04:35:25;101213.56;;;16.81
49785;BMP280;35679;38.732;-121.358;2023-04-03T04:38:14;101221.56;;;16.81
49785;BMP280;35679;38.732;-121.358;2023-04-03T04:41:03;101217.66;;;16.77
49785;BMP280;35679;38.732;-121.358;2023-04-03T04:43:53;101224.19;;;16.75
49785;BMP280;35679;38.732;-121.358;2023-04-03T04:46:43;101220.91;;;16.73
49785;BMP280;35679;38.732;-121.358;2023-04-03T04:49:33;101216.97;;;16.69
49785;BMP280;35679;38.732;-121.358;2023-04-03T04:52:23;101216.53;;;16.65
49785;BMP280;35679;38.732;-121.358;2023-04-03T04:55:12;101223.91;;;16.63
49785;BMP280;35679;38.732;-121.358;2023-04-03T04:58:02;101232.09;;;16.62
49785;BMP280;35679;38.732;-121.358;2023-04-03T05:01:06;101238.63;;;16.59
49785;BMP280;35679;38.732;-121.358;2023-04-03T05:04:02;101246.81;;;16.58
49785;BMP280;35679;38.732;-121.358;2023-04-03T05:06:52;101246.19;;;16.56
49785;BMP280;35679;38.732;-121.358;2023-04-03T05:09:44;101242.91;;;16.54
49785;BMP280;35679;38.732;-121.358;2023-04-03T05:12:36;101234.25;;;16.52
49785;BMP280;35679;38.732;-121.358;2023-04-03T05:15:25;101233.66;;;16.50
49785;BMP280;35679;38.732;-121.358;2023-04-03T05:18:15;101227.69;;;16.48
49785;BMP280;35679;38.732;-121.358;2023-04-03T05:21:05;101233.19;;;16.46
49785;BMP280;35679;38.732;-121.358;2023-04-03T05:23:55;101240.38;;;16.46
49785;BMP280;35679;38.732;-121.358;2023-04-03T05:26:45;101248.75;;;16.43
49785;BMP280;35679;38.732;-121.358;2023-04-03T05:29:35;101250.78;;;16.41
49785;BMP280;35679;38.732;-121.358;2023-04-03T05:32:26;101251.78;;;16.40
49785;BMP280;35679;38.732;-121.358;2023-04-03T05:35:28;101253.81;;;16.38
49785;BMP280;35679;38.732;-121.358;2023-04-03T05:38:20;101244.19;;;16.37
49785;BMP280;35679;38.732;-121.358;2023-04-03T05:41:11;101248.88;;;16.35
49785;BMP280;35679;38.732;-121.358;2023-04-03T05:44:02;101244.56;;;16.34
49785;BMP280;35679;38.732;-121.358;2023-04-03T05:46:52;101240.44;;;16.32
49785;BMP280;35679;38.732;-121.358;2023-04-03T05:49:41;101246.78;;;16.31
49785;BMP280;35679;38.732;-121.358;2023-04-03T05:52:36;101240.00;;;16.28
49785;BMP280;35679;38.732;-121.358;2023-04-03T05:55:26;101236.66;;;16.26
49785;BMP280;35679;38.732;-121.358;2023-04-03T05:58:15;101244.03;;;16.24
49785;BMP280;35679;38.732;-121.358;2023-04-03T06:01:07;101239.06;;;16.21
49785;BMP280;35679;38.732;-121.358;2023-04-03T06:03:56;101249.72;;;16.21
49785;BMP280;35679;38.732;-121.358;2023-04-03T06:06:52;101244.78;;;16.18
49785;BMP280;35679;38.732;-121.358;2023-04-03T06:09:43;101237.81;;;16.17
49785;BMP280;35679;38.732;-121.358;2023-04-03T06:12:32;101229.19;;;16.15
49785;BMP280;35679;38.732;-121.358;2023-04-03T06:15:21;101224.91;;;16.14
49785;BMP280;35679;38.732;-121.358;2023-04-03T06:18:11;101229.97;;;16.09
49785;BMP280;35679;38.732;-121.358;2023-04-03T06:21:00;101226.91;;;16.12
49785;BMP280;35679;38.732;-121.358;2023-04-03T06:23:51;101236.34;;;16.15
49785;BMP280;35679;38.732;-121.358;2023-04-03T06:26:41;101234.69;;;16.14
49785;BMP280;35679;38.732;-121.358;2023-04-03T06:29:31;101234.09;;;16.12
49785;BMP280;35679;38.732;-121.358;2023-04-03T06:32:20;101234.44;;;16.09
49785;BMP280;35679;38.732;-121.358;2023-04-03T06:35:09;101237.50;;;16.06
49785;BMP280;35679;38.732;-121.358;2023-04-03T06:37:59;101231.72;;;16.02
49785;BMP280;35679;38.732;-121.358;2023-04-03T06:40:49;101232.13;;;15.99
49785;BMP280;35679;38.732;-121.358;2023-04-03T06:43:38;101233.94;;;15.99
49785;BMP280;35679;38.732;-121.358;2023-04-03T06:46:28;101237.81;;;15.96
49785;BMP280;35679;38.732;-121.358;2023-04-03T06:49:17;101233.50;;;15.95
49785;BMP280;35679;38.732;-121.358;2023-04-03T06:52:07;101235.69;;;15.92
49785;BMP280;35679;38.732;-121.358;2023-04-03T06:54:57;101241.22;;;15.90
49785;BMP280;35679;38.732;-121.358;2023-04-03T06:57:49;101244.06;;;15.89
49785;BMP280;35679;38.732;-121.358;2023-04-03T07:00:38;101239.75;;;15.88
49785;BMP280;35679;38.732;-121.358;2023-04-03T07:03:28;101250.59;;;15.86
49785;BMP280;35679;38.732;-121.358;2023-04-03T07:06:18;101259.59;;;15.85
49785;BMP280;35679;38.732;-121.358;2023-04-03T07:09:09;101253.66;;;15.83
49785;BMP280;35679;38.732;-121.358;2023-04-03T07:11:59;101246.88;;;15.81
49785;BMP280;35679;38.732;-121.358;2023-04-03T07:14:49;101250.34;;;15.81
49785;BMP280;35679;38.732;-121.358;2023-04-03T07:17:38;101260.34;;;15.79
49785;BMP280;35679;38.732;-121.358;2023-04-03T07:20:29;101262.38;;;15.77
49785;BMP280;35679;38.732;-121.358;2023-04-03T07:23:19;101263.19;;;15.78
49785;BMP280;35679;38.732;-121.358;2023-04-03T07:26:08;101265.22;;;15.76
49785;BMP280;35679;38.732;-121.358;2023-04-03T07:28:57;101257.41;;;15.74
49785;BMP280;35679;38.732;-121.358;2023-04-03T07:31:47;101268.25;;;15.73
49785;BMP280;35679;38.732;-121.358;2023-04-03T07:34:38;101268.63;;;15.70
49785;BMP280;35679;38.732;-121.358;2023-04-03T07:37:27;101264.13;;;15.71
49785;BMP280;35679;38.732;-121.358;2023-04-03T07:40:16;101266.97;;;15.69
49785;BMP280;35679;38.732;-121.358;2023-04-03T07:43:07;101266.31;;;15.67
49785;BMP280;35679;38.732;-121.358;2023-04-03T07:45:57;101274.50;;;15.66
49785;BMP280;35679;38.732;-121.358;2023-04-03T07:48:46;101265.50;;;15.67
49785;BMP280;35679;38.732;-121.358;2023-04-03T07:51:35;101270.00;;;15.66
49785;BMP280;35679;38.732;-121.358;2023-04-03T07:54:25;101272.22;;;15.63
49785;BMP280;35679;38.732;-121.358;2023-04-03T07:57:14;101266.72;;;15.64
49785;BMP280;35679;38.732;-121.358;2023-04-03T08:00:05;101273.22;;;15.62
49785;BMP280;35679;38.732;-121.358;2023-04-03T08:03:01;101267.25;;;15.60
49785;BMP280;35679;38.732;-121.358;2023-04-03T08:05:51;101283.41;;;15.58
49785;BMP280;35679;38.732;-121.358;2023-04-03T08:08:41;101274.63;;;15.58
49785;BMP280;35679;38.732;-121.358;2023-04-03T08:11:30;101274.22;;;15.61
49785;BMP280;35679;38.732;-121.358;2023-04-03T08:14:20;101276.25;;;15.59
49785;BMP280;35679;38.732;-121.358;2023-04-03T08:17:10;101279.75;;;15.59
49785;BMP280;35679;38.732;-121.358;2023-04-03T08:20:01;101283.78;;;15.55
49785;BMP280;35679;38.732;-121.358;2023-04-03T08:22:51;101280.47;;;15.53
49785;BMP280;35679;38.732;-121.358;2023-04-03T08:25:41;101279.00;;;15.51
49785;BMP280;35679;38.732;-121.358;2023-04-03T08:28:30;101281.69;;;15.51
49785;BMP280;35679;38.732;-121.358;2023-04-03T08:31:20;101282.69;;;15.50
49785;BMP280;35679;38.732;-121.358;2023-04-03T08:34:09;101284.88;;;15.46
49785;BMP280;35679;38.732;-121.358;2023-04-03T08:37:00;101296.38;;;15.47
49785;BMP280;35679;38.732;-121.358;2023-04-03T08:39:50;101286.91;;;15.44
49785;BMP280;35679;38.732;-121.358;2023-04-03T08:45:53;101291.78;;;15.41
49785;BMP280;35679;38.732;-121.358;2023-04-03T08:48:44;101292.97;;;15.38
49785;BMP280;35679;38.732;-121.358;2023-04-03T08:51:44;101287.66;;;15.38
49785;BMP280;35679;38.732;-121.358;2023-04-03T08:54:57;101292.50;;;15.35
49785;BMP280;35679;38.732;-121.358;2023-04-03T08:57:48;101288.84;;;15.36
49785;BMP280;35679;38.732;-121.358;2023-04-03T09:01:02;101286.19;;;15.36
49785;BMP280;35679;38.732;-121.358;2023-04-03T09:03:56;101292.88;;;15.32
49785;BMP280;35679;38.732;-121.358;2023-04-03T09:06:54;101297.34;;;15.31
49785;BMP280;35679;38.732;-121.358;2023-04-03T09:09:45;101302.69;;;15.31
49785;BMP280;35679;38.732;-121.358;2023-04-03T09:12:48;101294.88;;;15.30
49785;BMP280;35679;38.732;-121.358;2023-04-03T09:15:40;101304.72;;;15.29
49785;BMP280;35679;38.732;-121.358;2023-04-03T09:18:39;101311.22;;;15.27
49785;BMP280;35679;38.732;-121.358;2023-04-03T09:21:36;101305.25;;;15.25
49785;BMP280;35679;38.732;-121.358;2023-04-03T09:24:26;101316.88;;;15.24
49785;BMP280;35679;38.732;-121.358;2023-04-03T09:27:16;101317.22;;;15.21
49785;BMP280;35679;38.732;-121.358;2023-04-03T09:30:06;101317.22;;;15.21
49785;BMP280;35679;38.732;-121.358;2023-04-03T09:32:57;101319.03;;;15.20
49785;BMP280;35679;38.732;-121.358;2023-04-03T09:35:47;101317.59;;;15.18
49785;BMP280;35679;38.732;-121.358;2023-04-03T09:38:37;101308.59;;;15.19
49785;BMP280;35679;38.732;-121.358;2023-04-03T09:41:27;101307.94;;;15.17
49785;BMP280;35679;38.732;-121.358;2023-04-03T09:44:25;101311.44;;;15.17
49785;BMP280;35679;38.732;-121.358;2023-04-03T09:47:26;101321.63;;;15.14
49785;BMP280;35679;38.732;-121.358;2023-04-03T09:50:21;101320.63;;;15.15
49785;BMP280;35679;38.732;-121.358;2023-04-03T09:59:11;101327.47;;;15.09
49785;BMP280;35679;38.732;-121.358;2023-04-03T10:02:40;101329.97;;;15.11
49785;BMP280;35679;38.732;-121.358;2023-04-03T10:05:38;101322.16;;;15.09
49785;BMP280;35679;38.732;-121.358;2023-04-03T10:08:33;101331.16;;;15.08
49785;BMP280;35679;38.732;-121.358;2023-04-03T10:11:23;101326.66;;;15.09
49785;BMP280;35679;38.732;-121.358;2023-04-03T10:14:17;101329.31;;;15.09
49785;BMP280;35679;38.732;-121.358;2023-04-03T10:17:14;101329.13;;;15.10
49785;BMP280;35679;38.732;-121.358;2023-04-03T10:20:34;101329.69;;;15.06
49785;BMP280;35679;38.732;-121.358;2023-04-03T10:26:52;101334.53;;;15.03
49785;BMP280;35679;38.732;-121.358;2023-04-03T10:30:04;101334.06;;;14.99
49785;BMP280;35679;38.732;-121.358;2023-04-03T10:36:43;101329.09;;;14.96
49785;BMP280;35679;38.732;-121.358;2023-04-03T10:39:44;101326.63;;;14.95
49785;BMP280;35679;38.732;-121.358;2023-04-03T10:42:47;101324.97;;;14.94
49785;BMP280;35679;38.732;-121.358;2023-04-03T10:55:18;101323.19;;;14.86
49785;BMP280;35679;38.732;-121.358;2023-04-03T10:58:20;101324.22;;;14.85
49785;BMP280;35679;38.732;-121.358;2023-04-03T11:01:21;101320.25;;;14.81
49785;BMP280;35679;38.732;-121.358;2023-04-03T11:04:13;101313.13;;;14.82
49785;BMP280;35679;38.732;-121.358;2023-04-03T11:07:12;101306.69;;;14.76
49785;BMP280;35679;38.732;-121.358;2023-04-03T11:10:11;101310.34;;;14.75
49785;BMP280;35679;38.732;-121.358;2023-04-03T11:13:11;101316.69;;;14.74
49785;BMP280;35679;38.732;-121.358;2023-04-03T11:16:04;101317.03;;;14.71
49785;BMP280;35679;38.732;-121.358;2023-04-03T11:19:03;101321.34;;;14.72
49785;BMP280;35679;38.732;-121.358;2023-04-03T11:22:00;101322.34;;;14.71
49785;BMP280;35679;38.732;-121.358;2023-04-03T11:25:04;101322.53;;;14.70
49785;BMP280;35679;38.732;-121.358;2023-04-03T11:28:00;101320.06;;;14.68
49785;BMP280;35679;38.732;-121.358;2023-04-03T11:37:35;101332.69;;;14.66
49785;BMP280;35679;38.732;-121.358;2023-04-03T11:40:35;101332.88;;;14.65
49785;BMP280;35679;38.732;-121.358;2023-04-03T11:43:30;101334.03;;;14.62
49785;BMP280;35679;38.732;-121.358;2023-04-03T11:46:20;101335.22;;;14.60
49785;BMP280;35679;38.732;-121.358;2023-04-03T11:58:34;101351.69;;;14.55
49785;BMP280;35679;38.732;-121.358;2023-04-03T12:01:46;101350.03;;;14.54
49785;BMP280;35679;38.732;-121.358;2023-04-03T12:04:36;101360.03;;;14.52
49785;BMP280;35679;38.732;-121.358;2023-04-03T12:07:26;101356.53;;;14.52
49785;BMP280;35679;38.732;-121.358;2023-04-03T12:10:16;101358.53;;;14.50
49785;BMP280;35679;38.732;-121.358;2023-04-03T12:13:18;101354.41;;;14.47
49785;BMP280;35679;38.732;-121.358;2023-04-03T12:19:31;101352.09;;;14.44
49785;BMP280;35679;38.732;-121.358;2023-04-03T12:22:29;101360.06;;;14.44
49785;BMP280;35679;38.732;-121.358;2023-04-03T12:26:21;101364.75;;;14.43
49785;BMP280;35679;38.732;-121.358;2023-04-03T12:28:55;101363.88;;;14.42
49785;BMP280;35679;38.732;-121.358;2023-04-03T12:35:19;101368.75;;;14.39
49785;BMP280;35679;38.732;-121.358;2023-04-03T12:44:47;101381.06;;;14.32
49785;BMP280;35679;38.732;-121.358;2023-04-03T12:47:42;101372.44;;;14.30
49785;BMP280;35679;38.732;-121.358;2023-04-03T12:50:32;101386.56;;;14.30
49785;BMP280;35679;38.732;-121.358;2023-04-03T12:53:26;101387.19;;;14.32
49785;BMP280;35679;38.732;-121.358;2023-04-03T12:59:21;101387.56;;;14.29
49785;BMP280;35679;38.732;-121.358;2023-04-03T13:02:24;101385.06;;;14.28
49785;BMP280;35679;38.732;-121.358;2023-04-03T13:05:17;101398.50;;;14.26
49785;BMP280;35679;38.732;-121.358;2023-04-03T13:08:11;101389.06;;;14.24
49785;BMP280;35679;38.732;-121.358;2023-04-03T13:11:10;101385.59;;;14.23
49785;BMP280;35679;38.732;-121.358;2023-04-03T13:14:05;101394.72;;;14.21
49785;BMP280;35679;38.732;-121.358;2023-04-03T13:16:58;101397.56;;;14.19
49785;BMP280;35679;38.732;-121.358;2023-04-03T13:19:49;101395.91;;;14.18
49785;BMP280;35679;38.732;-121.358;2023-04-03T13:22:49;101402.56;;;14.14
49785;BMP280;35679;38.732;-121.358;2023-04-03T13:25:42;101410.34;;;14.16
49785;BMP280;35679;38.732;-121.358;2023-04-03T13:28:33;101407.22;;;14.12
49785;BMP280;35679;38.732;-121.358;2023-04-03T13:31:26;101410.03;;;14.11
49785;BMP280;35679;38.732;-121.358;2023-04-03T13:34:19;101415.34;;;14.11
49785;BMP280;35679;38.732;-121.358;2023-04-03T13:37:39;101414.69;;;14.09
49785;BMP280;35679;38.732;-121.358;2023-04-03T13:40:28;101410.34;;;14.08
49785;BMP280;35679;38.732;-121.358;2023-04-03T13:43:36;101420.00;;;14.09
49785;BMP280;35679;38.732;-121.358;2023-04-03T13:46:28;101427.09;;;14.08
49785;BMP280;35679;38.732;-121.358;2023-04-03T13:49:34;101425.63;;;14.06
49785;BMP280;35679;38.732;-121.358;2023-04-03T13:52:41;101435.38;;;14.05
49785;BMP280;35679;38.732;-121.358;2023-04-03T13:55:34;101440.56;;;14.07
49785;BMP280;35679;38.732;-121.358;2023-04-03T13:58:28;101445.19;;;14.05
49785;BMP280;35679;38.732;-121.358;2023-04-03T14:01:19;101449.19;;;14.01
49785;BMP280;35679;38.732;-121.358;2023-04-03T14:04:46;101450.00;;;14.01
49785;BMP280;35679;38.732;-121.358;2023-04-03T14:07:36;101446.84;;;13.98
49785;BMP280;35679;38.732;-121.358;2023-04-03T14:10:26;101448.88;;;13.96
49785;BMP280;35679;38.732;-121.358;2023-04-03T14:13:19;101451.34;;;13.97
49785;BMP280;35679;38.732;-121.358;2023-04-03T14:16:16;101456.66;;;13.97
49785;BMP280;35679;38.732;-121.358;2023-04-03T14:19:10;101464.13;;;13.94
49785;BMP280;35679;38.732;-121.358;2023-04-03T14:22:21;101469.25;;;13.95
49785;BMP280;35679;38.732;-121.358;2023-04-03T14:25:12;101471.09;;;13.95
49785;BMP280;35679;38.732;-121.358;2023-04-03T14:28:15;101465.13;;;13.93
49785;BMP280;35679;38.732;-121.358;2023-04-03T14:31:04;101462.00;;;13.89
49785;BMP280;35679;38.732;-121.358;2023-04-03T14:33:54;101467.13;;;13.91
49785;BMP280;35679;38.732;-121.358;2023-04-03T14:36:45;101464.66;;;13.89
49785;BMP280;35679;38.732;-121.358;2023-04-03T14:39:35;101470.09;;;13.88
49785;BMP280;35679;38.732;-121.358;2023-04-03T14:42:29;101469.28;;;13.87
49785;BMP280;35679;38.732;-121.358;2023-04-03T14:45:19;101469.47;;;13.86
49785;BMP280;35679;38.732;-121.358;2023-04-03T14:48:25;101464.47;;;13.91
49785;BMP280;35679;38.732;-121.358;2023-04-03T14:51:16;101470.28;;;13.86
49785;BMP280;35679;38.732;-121.358;2023-04-03T14:54:09;101475.59;;;13.86
49785;BMP280;35679;38.732;-121.358;2023-04-03T14:57:00;101482.88;;;13.84
49785;BMP280;35679;38.732;-121.358;2023-04-03T14:59:50;101485.38;;;13.86
49785;BMP280;35679;38.732;-121.358;2023-04-03T15:02:40;101482.56;;;13.87
49785;BMP280;35679;38.732;-121.358;2023-04-03T15:05:30;101487.06;;;13.87
49785;BMP280;35679;38.732;-121.358;2023-04-03T15:08:25;101492.19;;;13.88
49785;BMP280;35679;38.732;-121.358;2023-04-03T15:11:15;101490.69;;;13.86
49785;BMP280;35679;38.732;-121.358;2023-04-03T15:14:05;101487.50;;;13.90
49785;BMP280;35679;38.732;-121.358;2023-04-03T15:16:54;101493.50;;;13.92
49785;BMP280;35679;38.732;-121.358;2023-04-03T15:19:44;101494.31;;;13.93
49785;BMP280;35679;38.732;-121.358;2023-04-03T15:22:33;101510.06;;;13.94
49785;BMP280;35679;38.732;-121.358;2023-04-03T15:25:24;101498.63;;;13.94
49785;BMP280;35679;38.732;-121.358;2023-04-03T15:28:40;101508.41;;;13.93
49785;BMP280;35679;38.732;-121.358;2023-04-03T15:31:30;101504.91;;;13.93
49785;BMP280;35679;38.732;-121.358;2023-04-03T15:34:20;101499.59;;;13.93
49785;BMP280;35679;38.732;-121.358;2023-04-03T15:37:10;101503.44;;;13.90
49785;BMP280;35679;38.732;-121.358;2023-04-03T15:39:59;101502.78;;;13.88
49785;BMP280;35679;38.732;-121.358;2023-04-03T15:42:49;101519.69;;;13.87
49785;BMP280;35679;38.732;-121.358;2023-04-03T15:45:41;101513.22;;;13.90
49785;BMP280;35679;38.732;-121.358;2023-04-03T15:48:31;101520.50;;;13.88
49785;BMP280;35679;38.732;-121.358;2023-04-03T15:51:21;101516.56;;;13.92
49785;BMP280;35679;38.732;-121.358;2023-04-03T15:54:10;101526.50;;;13.90
49785;BMP280;35679;38.732;-121.358;2023-04-03T15:57:00;101518.53;;;13.90
49785;BMP280;35679;38.732;-121.358;2023-04-03T15:59:49;101527.47;;;13.89
49785;BMP280;35679;38.732;-121.358;2023-04-03T16:02:39;101532.78;;;13.89
49785;BMP280;35679;38.732;-121.358;2023-04-03T16:05:29;101522.84;;;13.91
49785;BMP280;35679;38.732;-121.358;2023-04-03T16:08:19;101532.63;;;13.90
49785;BMP280;35679;38.732;-121.358;2023-04-03T16:11:09;101530.81;;;13.91
49785;BMP280;35679;38.732;-121.358;2023-04-03T16:13:58;101534.09;;;13.93
49785;BMP280;35679;38.732;-121.358;2023-04-03T16:16:48;101539.41;;;13.93
49785;BMP280;35679;38.732;-121.358;2023-04-03T16:19:37;101549.19;;;13.92
49785;BMP280;35679;38.732;-121.358;2023-04-03T16:22:28;101541.72;;;13.88
49785;BMP280;35679;38.732;-121.358;2023-04-03T16:25:18;101551.34;;;13.89
49785;BMP280;35679;38.732;-121.358;2023-04-03T16:28:07;101549.38;;;13.91
49785;BMP280;35679;38.732;-121.358;2023-04-03T16:30:57;101551.19;;;13.90
49785;BMP280;35679;38.732;-121.358;2023-04-03T16:33:46;101546.06;;;13.89
49785;BMP280;35679;38.732;-121.358;2023-04-03T16:36:35;101552.34;;;13.88
49785;BMP280;35679;38.732;-121.358;2023-04-03T16:39:26;101550.84;;;13.85
49785;BMP280;35679;38.732;-121.358;2023-04-03T16:42:15;101548.06;;;13.87
49785;BMP280;35679;38.732;-121.358;2023-04-03T16:45:06;101555.00;;;13.88